Matsuyama current weather conditions

sailwx.info

Wind from 300 at 14 knots

Air temperature 6.0° C
Visibility: greater than 5.4 NM
Dewpoint -3.0° C

Last reported at 2014-Dec-21 12:00 UTC.
Time now 2014-Dec-21 20:09 UTC

Location: N 33°50' E 132°42'.
View on Google Maps.

See reports from other nearby stations

  
Tides and Currents Weather Stations Pressure Air Temp Water Temp Dewpoint Dewpoint Depression Visibility Wind Speed Wind Dir Waves Ship Positions
date/time (UTC)wind fromknots sea level pressurealtimeterstation pressurevisibilityair tempwater tempwave heightnotes
2014-Dec-21 12:00 300 14 5.4 6.0
2014-Dec-21 11:00 300 12 5.4 5.0
2014-Dec-21 10:00 280 11 5.4 6.0
2014-Dec-21 09:00 280 11 5.4 6.0
2014-Dec-21 08:00 280 8 5.4 6.0
2014-Dec-21 07:00 290 13 5.4 6.0
2014-Dec-21 06:00 280 18 5.4 7.0
2014-Dec-21 05:48 270 18 gusting 27 5.4 7.0
2014-Dec-21 05:00 290 10 5.4 7.0
2014-Dec-21 04:00 300 10 5.4 7.0
2014-Dec-21 03:00 290 11 5.4 7.0
2014-Dec-21 02:00 260 14 5.4 7.0
2014-Dec-21 01:00 270 11 5.4 7.0
2014-Dec-21 00:00 280 10 5.4 7.0
2014-Dec-20 23:15 290 10 5.4 4.0
2014-Dec-20 23:00 150 5 5.4 3.0
2014-Dec-20 22:00 130 7 5.4 3.0
2014-Dec-20 21:10 130 7 5.4 3.0
2014-Dec-20 12:00 280 17 4.310.0
2014-Dec-20 11:00 290 20 5.410.0
2014-Dec-20 10:00 280 17 5.411.0
2014-Dec-20 09:00 280 16 5.411.0
2014-Dec-20 08:00 130 7 5.4 9.0
2014-Dec-20 07:00 130 4 5.4 9.0
2014-Dec-20 06:00 140 3 5.4 9.0
2014-Dec-20 05:00 5.4 9.0
2014-Dec-20 04:00 120 10 5.4 8.0
2014-Dec-20 03:18 090 5 4.3 8.0 Light rain showers.
2014-Dec-20 03:00 060 5 2.7 8.0 Rain showers. Mist.
2014-Dec-20 02:49 060 5 2.7 8.0 Rain showers. Mist.
2014-Dec-20 02:00 340 13 2.7 8.0 Light rain showers. Mist.
2014-Dec-20 01:00 020 5 1.9 8.0 Rain showers. Mist.
2014-Dec-20 00:00 250 3 2.2 8.0 Rain showers. Mist.
2014-Dec-19 23:00 190 3 2.2 7.0 Rain showers. Mist.
2014-Dec-19 22:29 2.2 6.0 Rain showers. Mist.
2014-Dec-19 22:00 150 4 2.7 6.0 Rain showers. Mist.
2014-Dec-19 21:16 150 4 3.8 6.0 Rain showers.
2014-Dec-19 21:10 160 4 3.8 6.0 Light rain showers.